Tyndall Air Force Base Panama City US
ICAO: KPAM
IATA: PAM
Category: Large
Scheduled Services: No

Elevation: 17 ft
TransAlt. 18000 ft.

Airport Communications:
APP/DEP:119.1
ATIS:25.44
CLNC DEL:118.05
GND:121.9
PMSV METRO:29.062
COMD POST:38.13
PTD:139.9
TWR:133.95

KPAM Zoom In..

Runways:

(A) RW 13L length 10004 ft width 200 ft
ILS 111.50 / hdg 135

(B) RW 13R length 9135 ft width 150 ft
---- / hdg 135

(C) RW 31L length 9135 ft width 150 ft
---- / hdg 315

(D) RW 31R length 10004 ft width 200 ft
ILS 110.10 / hdg 315

Location; KPAM
Day. 30 / Time. 21.56 Zulu
* Altimeter: 29.98
* Temperature: 12° c. 53.6°f.
* Wind from: 300° Speed 13 kn.
Dewpoint: 03° c.
Visibility: 10 Statute Miles.
Clouds: Scattered 4300 ft.

KPAM 302156Z AUTO 30013KT 10SM SCT043 12/03 A2998 RMK AO2 SLP155 T01160029

Going to: --> -->


Wind From 300°
Speed 13 kn.

 
 
jpsmedia worldairports.se 2020   terms of use